createdAt,value
2023-04-17T00:04:33.912Z,40.67
2023-04-17T00:09:39.658Z,43.93
2023-04-17T00:14:47.592Z,33.75
2023-04-17T00:19:53.244Z,34.13
2023-04-17T00:24:58.682Z,32.47
2023-04-17T00:30:07.646Z,37.08
2023-04-17T00:35:13.309Z,35.47
2023-04-17T00:40:18.948Z,35.73
2023-04-17T00:45:27.047Z,36.17
2023-04-17T00:50:33.735Z,38.93
2023-04-17T00:55:41.234Z,29.23
2023-04-17T01:00:49.489Z,35.75
2023-04-17T01:05:55.155Z,35.60
2023-04-17T01:11:00.896Z,29.77
2023-04-17T01:16:09.470Z,29.17
2023-04-17T01:21:14.922Z,29.40
2023-04-17T01:26:24.816Z,36.57
2023-04-17T01:31:31.574Z,34.58
2023-04-17T01:36:37.475Z,33.73
2023-04-17T01:41:45.674Z,30.73
2023-04-17T01:46:51.401Z,37.65
2023-04-17T01:51:56.842Z,34.40
2023-04-17T01:57:05.074Z,31.13
2023-04-17T02:02:10.604Z,32.58
2023-04-17T02:07:16.816Z,35.00
2023-04-17T02:12:24.728Z,33.17
2023-04-17T02:17:30.174Z,30.45
2023-04-17T02:22:36.758Z,34.83
2023-04-17T02:27:44.881Z,33.63
2023-04-17T02:32:50.781Z,33.25
2023-04-17T02:37:57.242Z,38.23
2023-04-17T02:43:05.767Z,33.67
2023-04-17T02:48:11.769Z,34.22
2023-04-17T02:53:17.374Z,36.07
2023-04-17T02:58:25.300Z,34.33
2023-04-17T03:03:31.271Z,38.25
2023-04-17T03:08:38.858Z,39.03
2023-04-17T03:13:48.216Z,37.37
2023-04-17T03:18:53.757Z,35.30
2023-04-17T03:23:59.224Z,34.73
2023-04-17T03:29:07.847Z,36.80
2023-04-17T03:34:13.350Z,35.40
2023-04-17T03:39:22.309Z,37.67
2023-04-17T03:44:30.331Z,35.30
2023-04-17T03:49:35.911Z,32.15
2023-04-17T03:54:42.727Z,39.60
2023-04-17T03:59:52.831Z,36.08
2023-04-17T04:04:59.285Z,36.72
2023-04-17T04:10:05.192Z,34.33
2023-04-17T04:15:14.234Z,35.75
2023-04-17T04:20:20.113Z,36.33
2023-04-17T04:25:26.652Z,36.30
2023-04-17T04:30:51.127Z,41.05
2023-04-17T04:36:01.517Z,34.97
2023-04-17T04:41:10.564Z,38.63
2023-04-17T04:46:21.924Z,38.15
2023-04-17T04:51:28.515Z,34.93
2023-04-17T04:56:34.687Z,40.00
2023-04-17T05:01:44.962Z,38.63
2023-04-17T05:07:03.445Z,39.40
2023-04-17T05:12:14.271Z,35.87
2023-04-17T05:17:23.321Z,39.15
2023-04-17T05:22:31.726Z,42.67
2023-04-17T05:27:45.310Z,41.45
2023-04-17T05:32:55.263Z,39.53
2023-04-17T05:38:17.208Z,39.70
2023-04-17T05:43:22.736Z,37.40
2023-04-17T05:48:33.499Z,43.33
2023-04-17T05:53:40.824Z,43.70
2023-04-17T05:58:48.256Z,40.63
2023-04-17T06:03:56.722Z,43.70
2023-04-17T06:09:07.997Z,39.60
2023-04-17T06:14:13.545Z,36.78
2023-04-17T06:19:22.651Z,42.40
2023-04-17T06:24:28.264Z,37.95
2023-04-17T06:29:34.174Z,43.53
2023-04-17T06:34:58.613Z,41.80
2023-04-17T06:40:28.313Z,37.05
2023-04-17T06:45:35.833Z,39.83
2023-04-17T06:50:47.514Z,36.10
2023-04-17T06:55:52.915Z,34.42
2023-04-17T07:00:58.309Z,35.63
2023-04-17T07:06:06.549Z,30.70
2023-04-17T07:11:12.063Z,32.20
2023-04-17T07:16:17.443Z,37.27
2023-04-17T07:21:27.054Z,29.03
2023-04-17T07:26:32.393Z,37.03
2023-04-17T07:31:38.055Z,29.90
2023-04-17T07:36:46.750Z,29.67
2023-04-17T07:41:52.131Z,28.08
2023-04-17T07:46:57.563Z,33.37
2023-04-17T07:52:05.602Z,29.40
2023-04-17T07:57:11.362Z,30.33
2023-04-17T08:02:17.032Z,30.87
2023-04-17T08:07:25.178Z,28.40
2023-04-17T08:12:30.584Z,24.98
2023-04-17T08:17:36.165Z,25.20
2023-04-17T08:22:46.179Z,25.55
2023-04-17T08:27:51.774Z,25.67
2023-04-17T08:32:57.856Z,24.17
2023-04-17T08:38:06.116Z,29.10
2023-04-17T08:43:19.739Z,26.97
2023-04-17T08:48:26.333Z,27.80
2023-04-17T08:53:35.167Z,25.52
2023-04-17T08:58:40.623Z,26.87
2023-04-17T09:03:47.335Z,25.27
2023-04-17T09:09:04.317Z,27.33
2023-04-17T09:14:09.721Z,25.23
2023-04-17T09:19:15.418Z,25.03
2023-04-17T09:24:35.603Z,23.02
2023-04-17T09:29:58.809Z,25.03
2023-04-17T09:35:06.277Z,23.07
2023-04-17T09:40:15.165Z,22.02
2023-04-17T09:45:25.068Z,18.93
2023-04-17T09:50:30.907Z,19.63
2023-04-17T09:55:39.382Z,18.92
2023-04-17T10:00:45.219Z,17.17
2023-04-17T10:05:50.868Z,20.23
2023-04-17T10:11:09.833Z,20.20
2023-04-17T10:16:15.720Z,16.67
2023-04-17T10:21:26.199Z,17.75
2023-04-17T10:26:42.823Z,17.33
2023-04-17T10:32:19.210Z,17.03
2023-04-17T10:37:27.189Z,16.35
2023-04-17T10:42:35.226Z,19.17
2023-04-17T10:47:40.958Z,19.37
2023-04-17T10:52:47.624Z,14.07
2023-04-17T10:58:03.612Z,19.67
2023-04-17T11:03:10.208Z,16.00
2023-04-17T11:08:16.429Z,13.57
2023-04-17T11:13:24.374Z,12.80
2023-04-17T11:18:29.831Z,14.60
2023-04-17T11:23:36.475Z,12.48
2023-04-17T11:28:44.400Z,10.68
2023-04-17T11:33:51.239Z,14.17
2023-04-17T11:38:56.996Z,15.57
2023-04-17T11:44:05.335Z,15.80
2023-04-17T11:49:11.938Z,11.10
2023-04-17T11:54:23.766Z,13.85
2023-04-17T11:59:37.034Z,9.60
2023-04-17T12:04:42.690Z,10.30
2023-04-17T12:09:57.964Z,10.98
2023-04-17T12:15:06.329Z,9.68
2023-04-17T12:20:12.700Z,9.47
2023-04-17T12:25:18.135Z,9.32
2023-04-17T12:30:26.325Z,10.25
2023-04-17T12:35:32.028Z,8.27
2023-04-17T12:40:39.313Z,8.48
2023-04-17T12:45:48.398Z,11.10
2023-04-17T12:50:54.677Z,8.20
2023-04-17T12:56:00.333Z,7.63
2023-04-17T13:01:08.891Z,8.10
2023-04-17T13:06:18.912Z,10.40
2023-04-17T13:11:29.533Z,11.88
2023-04-17T13:16:37.910Z,6.60
2023-04-17T13:21:43.475Z,8.17
2023-04-17T13:26:52.040Z,11.50
2023-04-17T13:32:01.117Z,8.70
2023-04-17T13:37:08.344Z,8.33
2023-04-17T13:42:13.852Z,8.23
2023-04-17T13:47:22.040Z,9.85
2023-04-17T13:52:27.642Z,8.10
2023-04-17T13:58:12.764Z,11.10
2023-04-17T14:04:10.504Z,10.88
2023-04-17T14:09:16.777Z,10.37
2023-04-17T14:14:22.913Z,10.70
2023-04-17T14:19:33.839Z,9.60
2023-04-17T14:24:39.433Z,11.98
2023-04-17T14:29:44.937Z,11.53
2023-04-17T14:34:53.022Z,12.70
2023-04-17T14:40:02.727Z,10.55
2023-04-17T14:45:11.628Z,12.27
2023-04-17T14:50:56.244Z,10.40
2023-04-17T14:56:24.383Z,11.15
2023-04-17T15:01:30.257Z,11.97
2023-04-17T15:06:39.361Z,13.67
2023-04-17T15:11:44.837Z,13.80
2023-04-17T15:16:50.511Z,10.30
2023-04-17T15:21:58.736Z,11.20
2023-04-17T15:27:04.912Z,11.82
2023-04-17T15:32:10.692Z,12.60
2023-04-17T15:37:19.375Z,10.37
2023-04-17T15:42:24.831Z,14.05
2023-04-17T15:47:30.383Z,12.50
2023-04-17T15:52:38.459Z,9.43
2023-04-17T15:57:44.159Z,13.23
2023-04-17T16:02:50.073Z,9.57
2023-04-17T16:07:58.283Z,9.37
2023-04-17T16:13:04.911Z,11.23
2023-04-17T16:18:11.896Z,11.53
2023-04-17T16:23:20.388Z,11.00
2023-04-17T16:28:27.253Z,9.25
2023-04-17T16:33:33.631Z,13.40
2023-04-17T16:45:31.772Z,13.25
2023-04-17T16:51:22.677Z,9.18
2023-04-17T16:56:43.095Z,11.07
2023-04-17T17:01:52.810Z,9.02
2023-04-17T17:06:58.408Z,9.53
2023-04-17T17:12:06.826Z,11.23
2023-04-17T17:17:14.974Z,7.68
2023-04-17T17:22:20.526Z,8.43
2023-04-17T17:27:26.023Z,10.43
2023-04-17T17:32:34.216Z,9.15
2023-04-17T17:37:39.705Z,7.50
2023-04-17T17:42:45.340Z,10.60
2023-04-17T17:47:53.667Z,11.68
2023-04-17T17:53:02.224Z,10.02
2023-04-17T17:58:08.665Z,8.37
2023-04-17T18:03:17.474Z,13.75
2023-04-17T18:08:23.233Z,7.43
2023-04-17T18:13:28.801Z,9.63
2023-04-17T18:18:37.126Z,9.33
2023-04-17T18:23:42.550Z,10.68
2023-04-17T18:28:48.655Z,9.35
2023-04-17T18:33:57.828Z,13.13
2023-04-17T18:39:03.395Z,8.15
2023-04-17T18:44:08.917Z,8.48
2023-04-17T18:49:17.032Z,8.20
2023-04-17T18:54:23.276Z,7.82
2023-04-17T18:59:28.886Z,11.15
2023-04-17T19:04:37.333Z,8.20
2023-04-17T19:09:42.933Z,10.77
2023-04-17T19:14:49.703Z,9.23
2023-04-17T19:19:57.964Z,9.88
2023-04-17T19:25:03.529Z,7.47
2023-04-17T19:30:11.912Z,8.57
2023-04-17T19:35:20.198Z,8.30
2023-04-17T19:40:26.218Z,7.40
2023-04-17T19:45:31.810Z,7.35
2023-04-17T19:50:39.834Z,10.50
2023-04-17T19:55:46.157Z,9.70
2023-04-17T20:00:52.001Z,9.52
2023-04-17T20:06:00.850Z,8.30
2023-04-17T20:11:06.685Z,11.77
2023-04-17T20:16:15.862Z,8.57
2023-04-17T20:21:24.465Z,10.13
2023-04-17T20:26:30.449Z,9.70
2023-04-17T20:31:36.887Z,11.07
2023-04-17T20:36:45.660Z,8.75
2023-04-17T20:41:51.512Z,9.40
2023-04-17T20:46:56.988Z,8.45
2023-04-17T20:52:05.174Z,11.40
2023-04-17T20:57:20.868Z,9.10
2023-04-17T21:02:26.721Z,8.57
2023-04-17T21:07:34.895Z,9.13
2023-04-17T21:12:40.562Z,10.57
2023-04-17T21:17:47.958Z,9.70
2023-04-17T21:22:56.103Z,14.05
2023-04-17T21:28:01.987Z,9.63
2023-04-17T21:33:08.011Z,10.68
2023-04-17T21:38:15.947Z,11.97
2023-04-17T21:43:21.415Z,12.10
2023-04-17T21:48:26.764Z,14.93
2023-04-17T21:53:36.078Z,13.67
2023-04-17T21:58:41.513Z,11.23
2023-04-17T22:03:47.191Z,13.20
2023-04-17T22:08:55.088Z,11.90
2023-04-17T22:14:00.722Z,14.60
2023-04-17T22:19:06.326Z,17.17
2023-04-17T22:24:14.786Z,12.07
2023-04-17T22:29:20.468Z,11.93
2023-04-17T22:34:25.867Z,12.30
2023-04-17T22:39:34.345Z,10.87
2023-04-17T22:44:39.787Z,12.70
2023-04-17T22:49:45.490Z,11.57
2023-04-17T22:54:53.478Z,11.80
2023-04-17T22:59:58.980Z,11.47
2023-04-17T23:05:04.839Z,10.15
2023-04-17T23:10:13.442Z,9.70
2023-04-17T23:15:18.831Z,9.93
2023-04-17T23:20:25.172Z,9.90
2023-04-17T23:25:33.197Z,13.30
2023-04-17T23:30:38.624Z,13.80
2023-04-17T23:35:44.053Z,9.38
2023-04-17T23:40:52.054Z,9.50
2023-04-17T23:45:57.919Z,8.73
2023-04-17T23:51:03.446Z,11.38
2023-04-17T23:56:11.575Z,11.93
